createdAt,value
2023-02-27T00:01:41.201Z,98844.81
2023-02-27T00:03:46.564Z,98832.91
2023-02-27T00:05:51.795Z,98837.03
2023-02-27T00:07:56.654Z,98830.19
2023-02-27T00:10:01.609Z,98839.53
2023-02-27T00:12:07.843Z,98842.03
2023-02-27T00:14:12.775Z,98841.13
2023-02-27T00:16:17.640Z,98841.94
2023-02-27T00:18:25.329Z,98838.44
2023-02-27T00:20:37.843Z,98838.38
2023-02-27T00:22:43.746Z,98841.69
2023-02-27T00:24:48.543Z,98846.94
2023-02-27T00:26:55.678Z,98845.25
2023-02-27T00:29:00.581Z,98846.97
2023-02-27T00:31:05.492Z,98846.94
2023-02-27T00:33:10.648Z,98845.25
2023-02-27T00:35:18.172Z,98837.63
2023-02-27T00:37:22.948Z,98842.78
2023-02-27T00:39:27.970Z,98841.97
2023-02-27T00:41:32.756Z,98846.22
2023-02-27T00:43:37.571Z,98845.34
2023-02-27T00:45:42.386Z,98845.34
2023-02-27T00:47:47.223Z,98845.22
2023-02-27T00:49:55.819Z,98840.91
2023-02-27T00:52:03.276Z,98845.19
2023-02-27T00:54:09.646Z,98851.19
2023-02-27T00:56:15.091Z,98852.88
2023-02-27T00:58:19.955Z,98844.25
2023-02-27T01:00:26.116Z,98844.25
2023-02-27T01:02:32.005Z,98846.00
2023-02-27T01:04:37.049Z,98845.16
2023-02-27T01:06:41.906Z,98842.56
2023-02-27T01:08:49.333Z,98836.63
2023-02-27T01:10:54.087Z,98834.81
2023-02-27T01:12:59.061Z,98837.38
2023-02-27T01:15:04.495Z,98840.81
2023-02-27T01:17:09.468Z,98830.56
2023-02-27T01:19:17.131Z,98829.69
2023-02-27T01:21:22.098Z,98826.25
2023-02-27T01:23:26.848Z,98823.78
2023-02-27T01:25:34.861Z,98824.63
2023-02-27T01:27:39.894Z,98828.16
2023-02-27T01:29:44.473Z,98828.13
2023-02-27T01:31:49.384Z,98834.00
2023-02-27T01:33:54.521Z,98832.34
2023-02-27T01:36:00.322Z,98831.44
2023-02-27T01:38:05.241Z,98829.69
2023-02-27T01:40:11.658Z,98839.97
2023-02-27T01:42:25.292Z,98834.72
2023-02-27T01:44:31.719Z,98835.56
2023-02-27T01:46:37.394Z,98835.63
2023-02-27T01:48:45.253Z,98829.69
2023-02-27T01:50:56.234Z,98835.69
2023-02-27T01:53:03.945Z,98842.56
2023-02-27T01:55:12.893Z,98838.28
2023-02-27T01:57:18.010Z,98843.44
2023-02-27T01:59:25.707Z,98844.34
2023-02-27T02:01:32.013Z,98842.66
2023-02-27T02:03:44.276Z,98841.03
2023-02-27T02:05:49.989Z,98851.34
2023-02-27T02:07:56.055Z,98849.56
2023-02-27T02:10:02.909Z,98852.97
2023-02-27T02:12:09.277Z,98856.41
2023-02-27T02:14:14.169Z,98856.34
2023-02-27T02:16:40.492Z,98855.56
2023-02-27T02:18:56.787Z,98857.31
2023-02-27T02:21:39.162Z,98858.22
2023-02-27T02:24:10.405Z,98858.25
2023-02-27T02:26:38.176Z,98859.03
2023-02-27T02:29:26.905Z,98859.00
2023-02-27T02:32:01.967Z,98859.81
2023-02-27T02:34:47.985Z,98859.78
2023-02-27T02:37:32.411Z,98868.16
2023-02-27T02:40:01.614Z,98869.81
2023-02-27T02:42:12.502Z,98867.25
2023-02-27T02:44:25.587Z,98868.19
2023-02-27T02:46:38.580Z,98873.34
2023-02-27T02:48:49.302Z,98865.59
2023-02-27T02:51:04.728Z,98872.44
2023-02-27T02:53:16.167Z,98866.53
2023-02-27T02:55:29.588Z,98872.47
2023-02-27T02:57:38.108Z,98868.22
2023-02-27T02:59:50.796Z,98868.06
2023-02-27T03:01:59.979Z,98868.88
2023-02-27T03:04:12.799Z,98868.78
2023-02-27T03:06:22.659Z,98881.50
2023-02-27T03:08:31.428Z,98881.47
2023-02-27T03:10:44.642Z,98883.94
2023-02-27T03:12:55.200Z,98884.69
2023-02-27T03:15:06.373Z,98881.25
2023-02-27T03:17:18.133Z,98887.16
2023-02-27T03:19:27.743Z,98884.47
2023-02-27T03:21:38.243Z,98887.03
2023-02-27T03:23:46.445Z,98886.88
2023-02-27T03:25:58.179Z,98887.69
2023-02-27T03:28:07.933Z,98891.78
2023-02-27T03:30:16.013Z,98891.84
2023-02-27T03:32:24.664Z,98898.66
2023-02-27T03:34:33.196Z,98895.19
2023-02-27T03:36:47.368Z,98895.25
2023-02-27T03:38:58.539Z,98893.56
2023-02-27T03:41:12.609Z,98897.78
2023-02-27T03:43:33.687Z,98894.34
2023-02-27T03:45:46.965Z,98902.81
2023-02-27T03:47:52.162Z,98906.16
2023-02-27T03:49:57.039Z,98899.31
2023-02-27T03:52:02.048Z,98899.19
2023-02-27T03:54:11.327Z,98902.50
2023-02-27T03:56:23.591Z,98903.41
2023-02-27T03:58:28.906Z,98897.56
2023-02-27T04:00:34.629Z,98905.22
2023-02-27T04:02:39.897Z,98897.66
2023-02-27T04:04:44.872Z,98905.31
2023-02-27T04:07:09.002Z,98908.75
2023-02-27T04:09:24.393Z,98903.66
2023-02-27T04:11:46.080Z,98904.41
2023-02-27T04:14:03.171Z,98915.50
2023-02-27T04:16:23.888Z,98907.91
2023-02-27T04:18:41.679Z,98903.59
2023-02-27T04:20:51.180Z,98905.25
2023-02-27T04:23:02.690Z,98906.97
2023-02-27T04:25:25.454Z,98912.91
2023-02-27T04:27:41.037Z,98910.41
2023-02-27T04:29:56.813Z,98917.28
2023-02-27T04:32:05.220Z,98924.94
2023-02-27T04:34:17.541Z,98918.97
2023-02-27T04:36:28.602Z,98924.13
2023-02-27T04:38:39.083Z,98922.34
2023-02-27T04:40:50.454Z,98924.88
2023-02-27T04:43:03.669Z,98923.16
2023-02-27T04:45:15.317Z,98918.91
2023-02-27T04:47:21.946Z,98929.94
2023-02-27T04:49:30.949Z,98923.16
2023-02-27T04:51:41.494Z,98923.94
2023-02-27T04:53:51.970Z,98928.19
2023-02-27T04:56:00.359Z,98927.31
2023-02-27T04:58:13.215Z,98930.72
2023-02-27T05:00:22.217Z,98934.13
2023-02-27T05:02:31.379Z,98929.94
2023-02-27T05:04:40.388Z,98931.63
2023-02-27T05:06:47.598Z,98938.47
2023-02-27T05:08:59.589Z,98941.03
2023-02-27T05:11:10.949Z,98941.09
2023-02-27T05:13:21.918Z,98943.66
2023-02-27T05:15:31.193Z,98946.25
2023-02-27T05:17:39.900Z,98941.13
2023-02-27T05:19:46.292Z,98948.75
2023-02-27T05:21:59.786Z,98947.84
2023-02-27T05:24:14.600Z,98952.97
2023-02-27T05:26:23.741Z,98946.13
2023-02-27T05:28:38.919Z,98946.09
2023-02-27T05:30:51.358Z,98949.44
2023-02-27T05:33:00.341Z,98952.84
2023-02-27T05:35:13.784Z,98958.69
2023-02-27T05:37:23.273Z,98953.47
2023-02-27T05:39:31.103Z,98967.88
2023-02-27T05:41:40.105Z,98965.16
2023-02-27T05:43:51.934Z,98961.69
2023-02-27T05:46:02.593Z,98962.59
2023-02-27T05:48:11.651Z,98955.75
2023-02-27T05:50:20.308Z,98970.19
2023-02-27T05:52:29.553Z,98971.91
2023-02-27T05:54:39.132Z,98976.16
2023-02-27T05:56:48.705Z,98972.81
2023-02-27T05:59:01.129Z,98980.34
2023-02-27T06:01:09.328Z,98975.25
2023-02-27T06:03:14.728Z,98976.94
2023-02-27T06:05:22.728Z,98979.56
2023-02-27T06:07:27.558Z,98987.09
2023-02-27T06:09:32.388Z,98980.34
2023-02-27T06:11:37.284Z,98987.81
2023-02-27T06:13:42.662Z,98990.22
2023-02-27T06:15:50.101Z,98992.75
2023-02-27T06:17:55.057Z,98994.44
2023-02-27T06:19:59.933Z,98993.53
2023-02-27T06:22:04.850Z,98994.44
2023-02-27T06:24:09.942Z,99003.00
2023-02-27T06:26:15.803Z,98997.91
2023-02-27T06:28:20.627Z,99005.59
2023-02-27T06:30:25.500Z,98998.81
2023-02-27T06:32:32.967Z,99000.59
2023-02-27T06:34:37.775Z,99000.59
2023-02-27T06:36:43.106Z,99012.53
2023-02-27T06:38:48.406Z,99011.69
2023-02-27T06:40:53.923Z,99010.81
2023-02-27T06:42:58.701Z,99016.84
2023-02-27T06:45:03.448Z,99014.38
2023-02-27T06:47:08.365Z,99014.41
2023-02-27T06:49:15.589Z,99013.44
2023-02-27T06:51:20.451Z,99014.34
2023-02-27T06:53:26.452Z,99021.91
2023-02-27T06:55:31.249Z,99017.75
2023-02-27T06:57:36.250Z,99018.69
2023-02-27T06:59:42.002Z,99022.03
2023-02-27T07:01:46.878Z,99026.34
2023-02-27T07:03:51.604Z,99021.28
2023-02-27T07:05:59.671Z,99020.50
2023-02-27T07:08:05.276Z,99018.75
2023-02-27T07:10:13.996Z,99023.91
2023-02-27T07:12:18.762Z,99021.41
2023-02-27T07:14:23.817Z,99009.50
2023-02-27T07:16:29.001Z,99010.41
2023-02-27T07:18:34.021Z,99009.66
2023-02-27T07:20:38.916Z,99004.66
2023-02-27T07:22:46.357Z,99001.25
2023-02-27T07:24:51.184Z,99001.25
2023-02-27T07:26:56.548Z,99003.88
2023-02-27T07:29:01.331Z,98995.44
2023-02-27T07:31:06.249Z,98993.78
2023-02-27T07:33:11.259Z,99000.53
2023-02-27T07:35:15.834Z,99007.28
2023-02-27T07:37:20.630Z,99005.63
2023-02-27T07:39:29.619Z,99014.22
2023-02-27T07:41:34.455Z,99015.22
2023-02-27T07:43:39.289Z,99011.91
2023-02-27T07:45:44.084Z,99006.13
2023-02-27T07:47:49.598Z,99009.53
2023-02-27T07:49:56.481Z,99014.78
2023-02-27T07:52:01.387Z,99014.84
2023-02-27T07:54:06.363Z,99016.66
2023-02-27T07:56:14.048Z,99014.19
2023-02-27T07:58:18.935Z,99007.47
2023-02-27T08:00:24.141Z,99022.91
2023-02-27T08:02:29.331Z,99014.41
2023-02-27T08:04:33.969Z,99017.00
2023-02-27T08:06:38.772Z,99021.34
2023-02-27T08:08:43.570Z,99011.94
2023-02-27T08:10:48.391Z,99007.63
2023-02-27T08:12:56.311Z,99015.41
2023-02-27T08:15:01.162Z,98998.34
2023-02-27T08:17:06.039Z,99009.56
2023-02-27T08:19:10.811Z,99014.78
2023-02-27T08:21:15.881Z,99006.34
2023-02-27T08:23:20.653Z,99010.75
2023-02-27T08:25:25.837Z,99020.25
2023-02-27T08:27:30.644Z,99011.66
2023-02-27T08:29:38.148Z,99015.00
2023-02-27T08:31:43.135Z,99011.59
2023-02-27T08:33:49.623Z,99015.19
2023-02-27T08:35:58.646Z,99015.28
2023-02-27T08:38:03.277Z,99008.56
2023-02-27T08:40:10.996Z,99007.00
2023-02-27T08:42:15.799Z,99016.53
2023-02-27T08:44:20.661Z,99010.66
2023-02-27T08:46:28.377Z,99020.94
2023-02-27T08:48:33.389Z,99014.22
2023-02-27T08:50:38.126Z,99017.69
2023-02-27T08:52:42.896Z,99011.00
2023-02-27T08:54:47.657Z,99013.56
2023-02-27T08:56:52.412Z,99016.22
2023-02-27T08:58:57.881Z,99027.28
2023-02-27T09:01:02.808Z,99019.66
2023-02-27T09:03:10.262Z,99024.84
2023-02-27T09:05:15.084Z,99019.84
2023-02-27T09:07:19.921Z,99022.44
2023-02-27T09:09:25.488Z,99018.22
2023-02-27T09:11:30.895Z,99016.63
2023-02-27T09:13:35.921Z,99015.91
2023-02-27T09:15:40.725Z,99019.44
2023-02-27T09:17:45.554Z,99022.94
2023-02-27T09:19:54.446Z,99027.25
2023-02-27T09:22:00.704Z,99023.88
2023-02-27T09:24:17.582Z,99018.72
2023-02-27T09:26:39.719Z,99025.69
2023-02-27T09:28:47.248Z,99018.97
2023-02-27T09:30:52.141Z,99020.78
2023-02-27T09:32:57.488Z,99025.13
2023-02-27T09:35:04.873Z,99027.06
2023-02-27T09:37:09.678Z,99023.81
2023-02-27T09:39:14.540Z,99030.75
2023-02-27T09:41:35.613Z,99034.16
2023-02-27T09:43:47.032Z,99035.88
2023-02-27T09:45:56.174Z,99032.34
2023-02-27T09:48:06.618Z,99039.06
2023-02-27T09:50:27.726Z,99038.16
2023-02-27T09:52:34.757Z,99035.66
2023-02-27T09:54:39.563Z,99031.34
2023-02-27T09:56:50.878Z,99036.53
2023-02-27T09:59:03.878Z,99034.00
2023-02-27T10:01:15.877Z,99040.88
2023-02-27T10:03:41.741Z,99039.25
2023-02-27T10:06:01.493Z,99045.31
2023-02-27T10:08:13.212Z,99040.28
2023-02-27T10:10:27.641Z,99034.31
2023-02-27T10:12:49.211Z,99041.16
2023-02-27T10:15:00.164Z,99043.69
2023-02-27T10:17:08.812Z,99046.22
2023-02-27T10:19:19.017Z,99050.44
2023-02-27T10:21:32.201Z,99051.28
2023-02-27T10:23:42.915Z,99051.22
2023-02-27T10:25:52.175Z,99050.31
2023-02-27T10:28:01.373Z,99047.66
2023-02-27T10:30:29.595Z,99062.22
2023-02-27T10:32:38.168Z,99049.41
2023-02-27T10:34:45.186Z,99043.38
2023-02-27T10:36:52.806Z,99052.75
2023-02-27T10:39:04.416Z,99055.34
2023-02-27T10:41:13.290Z,99050.34
2023-02-27T10:43:19.994Z,99045.28
2023-02-27T10:45:24.863Z,99050.47
2023-02-27T10:47:29.896Z,99055.66
2023-02-27T10:49:36.380Z,99053.06
2023-02-27T10:51:41.172Z,99051.34
2023-02-27T10:53:48.546Z,99051.34
2023-02-27T10:56:03.270Z,99055.63
2023-02-27T10:58:08.714Z,99059.03
2023-02-27T11:00:26.101Z,99064.19
2023-02-27T11:02:37.023Z,99057.31
2023-02-27T11:04:43.290Z,99053.81
2023-02-27T11:06:55.162Z,99062.41
2023-02-27T11:09:22.362Z,99055.56
2023-02-27T11:11:31.049Z,99053.06
2023-02-27T11:13:38.227Z,99052.25
2023-02-27T11:15:43.313Z,99044.56
2023-02-27T11:17:48.107Z,99043.72
2023-02-27T11:19:52.857Z,99044.56
2023-02-27T11:22:09.125Z,99045.41
2023-02-27T11:24:23.505Z,99053.16
2023-02-27T11:26:36.367Z,99036.03
2023-02-27T11:28:41.237Z,99036.03
2023-02-27T11:30:46.608Z,99042.03
2023-02-27T11:32:52.628Z,99035.13
2023-02-27T11:35:00.481Z,99030.81
2023-02-27T11:37:09.010Z,99027.34
2023-02-27T11:39:29.193Z,99028.19
2023-02-27T11:41:36.173Z,99023.03
2023-02-27T11:43:49.978Z,99023.84
2023-02-27T11:46:04.228Z,99022.06
2023-02-27T11:48:13.929Z,99019.44
2023-02-27T11:50:40.588Z,99011.66
2023-02-27T11:52:52.956Z,99010.78
2023-02-27T11:55:03.461Z,99003.19
2023-02-27T11:57:17.240Z,99017.75
2023-02-27T11:59:41.890Z,99019.63
2023-02-27T12:01:52.214Z,99007.69
2023-02-27T12:04:04.598Z,99015.41
2023-02-27T12:06:17.768Z,99012.00
2023-02-27T12:08:32.688Z,99008.56
2023-02-27T12:10:50.174Z,99007.72
2023-02-27T12:13:01.875Z,99004.31
2023-02-27T12:15:18.304Z,99006.03
2023-02-27T12:17:28.881Z,99012.03
2023-02-27T12:19:41.572Z,99005.16
2023-02-27T12:21:50.371Z,99000.03
2023-02-27T12:24:00.917Z,99000.00
2023-02-27T12:26:14.713Z,99001.69
2023-02-27T12:28:34.265Z,98994.84
2023-02-27T12:30:44.983Z,98992.28
2023-02-27T12:32:57.404Z,99000.00
2023-02-27T12:35:08.401Z,98998.31
2023-02-27T12:37:16.435Z,98991.44
2023-02-27T12:39:23.485Z,98989.72
2023-02-27T12:41:49.466Z,98991.44
2023-02-27T12:44:03.304Z,98986.31
2023-02-27T12:46:26.312Z,99008.63
2023-02-27T12:48:48.327Z,98991.47
2023-02-27T12:51:01.099Z,98994.03
2023-02-27T12:53:22.574Z,98986.25
2023-02-27T12:55:30.735Z,98983.63
2023-02-27T12:57:54.153Z,98988.75
2023-02-27T13:00:18.699Z,98986.16
2023-02-27T13:02:41.907Z,98986.16
2023-02-27T13:04:49.409Z,98984.44
2023-02-27T13:07:02.275Z,98981.78
2023-02-27T13:09:18.979Z,98972.31
2023-02-27T13:11:32.251Z,98974.00
2023-02-27T13:13:58.800Z,98970.50
2023-02-27T13:16:08.258Z,98972.25
2023-02-27T13:18:45.591Z,98971.44
2023-02-27T13:20:56.576Z,98977.56
2023-02-27T13:23:09.248Z,98977.56
2023-02-27T13:25:17.301Z,98980.19
2023-02-27T13:27:28.699Z,98981.94
2023-02-27T13:29:45.262Z,98981.97
2023-02-27T13:32:00.181Z,98990.59
2023-02-27T13:34:17.342Z,98988.88
2023-02-27T13:36:27.776Z,98983.75
2023-02-27T13:38:35.407Z,98987.19
2023-02-27T13:40:42.753Z,98979.47
2023-02-27T13:43:01.937Z,98975.16
2023-02-27T13:45:44.636Z,98966.56
2023-02-27T13:47:51.797Z,98965.69
2023-02-27T13:49:58.133Z,98960.50
2023-02-27T13:52:04.226Z,98964.81
2023-02-27T13:54:24.425Z,98963.09
2023-02-27T13:56:29.402Z,98958.81
2023-02-27T13:58:34.248Z,98960.50
2023-02-27T14:00:41.930Z,98962.22
2023-02-27T14:03:00.006Z,98957.06
2023-02-27T14:05:09.154Z,98962.19
2023-02-27T14:07:18.720Z,98960.53
2023-02-27T14:09:25.683Z,98960.50
2023-02-27T14:11:34.523Z,98966.47
2023-02-27T14:14:08.147Z,98962.19
2023-02-27T14:16:36.160Z,98958.75
2023-02-27T14:19:00.035Z,98959.59
2023-02-27T14:21:04.939Z,98957.00
2023-02-27T14:23:27.388Z,98963.00
2023-02-27T14:25:38.034Z,98959.59
2023-02-27T14:27:52.423Z,98966.47
2023-02-27T14:30:01.480Z,98964.72
2023-02-27T14:32:09.717Z,98966.47
2023-02-27T14:34:18.920Z,98955.38
2023-02-27T14:36:25.335Z,98967.41
2023-02-27T14:38:31.978Z,98961.38
2023-02-27T14:40:42.719Z,98958.00
2023-02-27T14:42:54.653Z,98971.72
2023-02-27T14:44:59.699Z,98969.16
2023-02-27T14:47:05.722Z,98968.31
2023-02-27T14:49:22.740Z,98970.03
2023-02-27T14:51:30.604Z,98971.75
2023-02-27T14:53:37.656Z,98975.16
2023-02-27T14:55:42.568Z,98978.59
2023-02-27T14:57:57.535Z,98976.88
2023-02-27T15:00:02.824Z,98977.72
2023-02-27T15:02:18.697Z,98978.59
2023-02-27T15:04:31.754Z,98976.00
2023-02-27T15:06:39.994Z,98987.16
2023-02-27T15:08:48.580Z,98980.31
2023-02-27T15:10:55.131Z,98988.00
2023-02-27T15:13:00.700Z,98979.44
2023-02-27T15:15:09.868Z,98986.28
2023-02-27T15:17:19.755Z,98991.41
2023-02-27T15:19:25.795Z,98987.13
2023-02-27T15:21:35.862Z,98985.41
2023-02-27T15:23:40.723Z,98981.13
2023-02-27T15:25:45.718Z,98993.16
2023-02-27T15:27:50.580Z,98986.28
2023-02-27T15:29:58.125Z,98994.88
2023-02-27T15:32:03.352Z,99001.72
2023-02-27T15:34:15.591Z,99001.72
2023-02-27T15:36:23.644Z,98999.09
2023-02-27T15:38:33.778Z,99000.81
2023-02-27T15:40:38.857Z,98993.09
2023-02-27T15:42:43.597Z,98999.06
2023-02-27T15:44:53.439Z,98996.50
2023-02-27T15:46:59.655Z,98989.63
2023-02-27T15:49:04.876Z,98991.34
2023-02-27T15:51:12.050Z,99005.88
2023-02-27T15:53:22.209Z,98992.19
2023-02-27T15:55:32.863Z,98993.06
2023-02-27T15:57:37.754Z,99008.44
2023-02-27T15:59:45.026Z,99006.75
2023-02-27T16:01:52.377Z,99009.31
2023-02-27T16:03:59.231Z,99011.91
2023-02-27T16:06:12.909Z,99009.31
2023-02-27T16:08:21.231Z,99017.03
2023-02-27T16:10:34.129Z,99013.56
2023-02-27T16:13:04.053Z,99027.25
2023-02-27T16:15:27.724Z,99024.63
2023-02-27T16:17:40.161Z,99028.94
2023-02-27T16:19:47.220Z,99026.38
2023-02-27T16:22:09.343Z,99028.09
2023-02-27T16:24:24.524Z,99031.50
2023-02-27T16:26:36.697Z,99036.66
2023-02-27T16:28:47.890Z,99035.75
2023-02-27T16:30:56.835Z,99032.34
2023-02-27T16:33:03.868Z,99040.06
2023-02-27T16:35:18.392Z,99043.53
2023-02-27T16:37:25.020Z,99047.84
2023-02-27T16:39:30.554Z,99052.09
2023-02-27T16:41:38.003Z,99055.50
2023-02-27T16:43:45.090Z,99052.94
2023-02-27T16:45:56.103Z,99053.78
2023-02-27T16:48:02.999Z,99055.47
2023-02-27T16:50:13.052Z,99058.03
2023-02-27T16:52:17.889Z,99062.28
2023-02-27T16:54:28.460Z,99063.94
2023-02-27T16:56:38.390Z,99057.91
2023-02-27T16:58:46.038Z,99065.56
2023-02-27T17:00:50.898Z,99068.16
2023-02-27T17:02:55.810Z,99068.16
2023-02-27T17:05:00.600Z,99070.72
2023-02-27T17:07:06.994Z,99071.53
2023-02-27T17:09:12.518Z,99075.84
2023-02-27T17:11:17.373Z,99070.69
2023-02-27T17:13:22.136Z,99077.47
2023-02-27T17:15:30.110Z,99080.88
2023-02-27T17:17:34.918Z,99083.41
2023-02-27T17:19:39.972Z,99078.22
2023-02-27T17:21:44.927Z,99085.09
2023-02-27T17:23:49.989Z,99095.34
2023-02-27T17:25:56.124Z,99096.19
2023-02-27T17:28:01.174Z,99093.63
2023-02-27T17:30:06.232Z,99093.63
2023-02-27T17:32:13.426Z,99100.47
2023-02-27T17:34:18.690Z,99109.94
2023-02-27T17:36:25.024Z,99108.28
2023-02-27T17:38:29.864Z,99109.16
2023-02-27T17:40:34.877Z,99112.59
2023-02-27T17:42:39.989Z,99107.47
2023-02-27T17:44:45.109Z,99113.50
2023-02-27T17:46:49.912Z,99113.50
2023-02-27T17:49:00.752Z,99118.69
2023-02-27T17:51:09.864Z,99119.53
2023-02-27T17:53:15.742Z,99129.81
2023-02-27T17:55:20.584Z,99127.28
2023-02-27T17:57:25.517Z,99131.59
2023-02-27T17:59:30.241Z,99130.78
2023-02-27T18:01:38.057Z,99129.88
2023-02-27T18:03:44.308Z,99132.50
2023-02-27T18:05:56.070Z,99138.47
2023-02-27T18:08:00.809Z,99141.03
2023-02-27T18:10:06.189Z,99133.31
2023-02-27T18:12:11.044Z,99138.47
2023-02-27T18:14:15.904Z,99145.34
2023-02-27T18:16:22.101Z,99141.03
2023-02-27T18:18:27.597Z,99141.84
2023-02-27T18:20:32.542Z,99142.63
2023-02-27T18:22:39.970Z,99144.38
2023-02-27T18:24:44.730Z,99143.50
2023-02-27T18:26:49.593Z,99141.84
2023-02-27T18:28:54.525Z,99141.84
2023-02-27T18:30:59.513Z,99146.97
2023-02-27T18:33:04.322Z,99148.66
2023-02-27T18:35:09.512Z,99142.69
2023-02-27T18:37:14.036Z,99147.81
2023-02-27T18:39:24.348Z,99148.69
2023-02-27T18:41:30.124Z,99149.56
2023-02-27T18:43:36.041Z,99143.56
2023-02-27T18:45:40.960Z,99145.28
2023-02-27T18:47:45.753Z,99144.41
2023-02-27T18:49:51.281Z,99140.97
2023-02-27T18:51:56.106Z,99155.47
2023-02-27T18:54:01.249Z,99151.22
2023-02-27T18:56:09.663Z,99151.22
2023-02-27T18:58:14.514Z,99157.19
2023-02-27T19:00:21.757Z,99157.19
2023-02-27T19:02:26.948Z,99153.72
2023-02-27T19:04:35.442Z,99151.19
2023-02-27T19:06:43.126Z,99159.72
2023-02-27T19:08:48.886Z,99168.28
2023-02-27T19:10:53.701Z,99163.09
2023-02-27T19:13:01.224Z,99163.88
2023-02-27T19:15:06.433Z,99167.19
2023-02-27T19:17:11.232Z,99166.31
2023-02-27T19:19:16.121Z,99171.31
2023-02-27T19:21:21.014Z,99167.03
2023-02-27T19:23:25.753Z,99169.53
2023-02-27T19:25:30.583Z,99172.91
2023-02-27T19:27:38.110Z,99165.19
2023-02-27T19:29:45.580Z,99158.25
2023-02-27T19:31:50.529Z,99169.28
2023-02-27T19:33:55.618Z,99170.09
2023-02-27T19:36:01.057Z,99163.19
2023-02-27T19:38:06.130Z,99170.75
2023-02-27T19:40:13.557Z,99166.47
2023-02-27T19:42:21.453Z,99167.28
2023-02-27T19:44:26.607Z,99166.38
2023-02-27T19:46:35.813Z,99161.22
2023-02-27T19:48:41.337Z,99161.03
2023-02-27T19:50:46.165Z,99155.06
2023-02-27T19:52:50.938Z,99163.56
2023-02-27T19:54:56.381Z,99165.25
2023-02-27T19:57:01.233Z,99170.38
2023-02-27T19:59:06.036Z,99161.84
2023-02-27T20:01:11.284Z,99168.66
2023-02-27T20:03:21.041Z,99174.50
2023-02-27T20:05:25.951Z,99177.91
2023-02-27T20:07:32.301Z,99175.25
2023-02-27T20:09:37.170Z,99182.91
2023-02-27T20:11:41.982Z,99180.31
2023-02-27T20:13:46.859Z,99184.59
2023-02-27T20:15:58.557Z,99184.63
2023-02-27T20:18:03.426Z,99187.97
2023-02-27T20:20:12.617Z,99190.53
2023-02-27T20:22:17.466Z,99178.66
2023-02-27T20:24:22.562Z,99192.31
2023-02-27T20:26:28.947Z,99190.69
2023-02-27T20:28:34.546Z,99181.25
2023-02-27T20:30:39.396Z,99181.28
2023-02-27T20:32:46.215Z,99181.34
2023-02-27T20:34:51.228Z,99179.53
2023-02-27T20:37:00.344Z,99178.78
2023-02-27T20:39:06.695Z,99174.53
2023-02-27T20:41:13.606Z,99177.09
2023-02-27T20:43:20.642Z,99177.22
2023-02-27T20:45:25.496Z,99177.25
2023-02-27T20:47:30.341Z,99179.03
2023-02-27T20:49:37.970Z,99178.97
2023-02-27T20:51:43.322Z,99178.16
2023-02-27T20:53:52.853Z,99180.75
2023-02-27T20:55:57.741Z,99173.06
2023-02-27T20:58:02.658Z,99171.28
2023-02-27T21:00:12.326Z,99174.69
2023-02-27T21:02:17.194Z,99171.97
2023-02-27T21:04:23.911Z,99172.78
2023-02-27T21:06:30.514Z,99175.28
2023-02-27T21:08:38.708Z,99182.97
2023-02-27T21:10:46.688Z,99170.13
2023-02-27T21:12:51.548Z,99169.19
2023-02-27T21:14:56.465Z,99167.44
2023-02-27T21:17:01.725Z,99161.38
2023-02-27T21:19:07.529Z,99166.47
2023-02-27T21:21:14.694Z,99163.03
2023-02-27T21:23:19.459Z,99170.69
2023-02-27T21:25:24.333Z,99168.13
2023-02-27T21:27:31.822Z,99170.69
2023-02-27T21:29:36.582Z,99167.19
2023-02-27T21:31:45.194Z,99174.06
2023-02-27T21:33:50.519Z,99167.16
2023-02-27T21:35:55.389Z,99166.28
2023-02-27T21:38:00.215Z,99168.00
2023-02-27T21:40:05.117Z,99159.47
2023-02-27T21:42:10.065Z,99156.81
2023-02-27T21:44:19.494Z,99161.09
2023-02-27T21:46:24.361Z,99156.75
2023-02-27T21:48:29.168Z,99161.84
2023-02-27T21:50:34.088Z,99160.97
2023-02-27T21:52:38.876Z,99150.69
2023-02-27T21:54:46.705Z,99147.25
2023-02-27T21:56:53.975Z,99152.34
2023-02-27T21:59:02.009Z,99150.59
2023-02-27T22:01:15.864Z,99145.47
2023-02-27T22:03:20.963Z,99140.25
2023-02-27T22:05:25.608Z,99156.47
2023-02-27T22:07:30.490Z,99151.31
2023-02-27T22:09:37.597Z,99150.47
2023-02-27T22:11:42.689Z,99150.50
2023-02-27T22:13:47.837Z,99145.34
2023-02-27T22:15:52.455Z,99153.78
2023-02-27T22:17:59.815Z,99151.22
2023-02-27T22:20:07.048Z,99146.91
2023-02-27T22:22:11.946Z,99147.75
2023-02-27T22:24:16.980Z,99152.81
2023-02-27T22:26:24.532Z,99153.53
2023-02-27T22:28:29.333Z,99151.88
2023-02-27T22:30:34.263Z,99151.03
2023-02-27T22:32:40.709Z,99149.28
2023-02-27T22:34:47.854Z,99154.25
2023-02-27T22:36:53.328Z,99153.25
2023-02-27T22:38:58.498Z,99156.66
2023-02-27T22:41:05.846Z,99151.50
2023-02-27T22:43:11.313Z,99154.91
2023-02-27T22:45:16.759Z,99155.66
2023-02-27T22:47:21.567Z,99150.53
2023-02-27T22:49:26.923Z,99148.84
2023-02-27T22:51:34.659Z,99146.28
2023-02-27T22:53:40.826Z,99141.97
2023-02-27T22:55:45.581Z,99139.38
2023-02-27T22:57:51.892Z,99150.44
2023-02-27T22:59:56.686Z,99140.97
2023-02-27T23:02:01.594Z,99150.38
2023-02-27T23:04:08.580Z,99154.69
2023-02-27T23:06:18.026Z,99146.94
2023-02-27T23:08:25.395Z,99148.56
2023-02-27T23:10:30.202Z,99149.38
2023-02-27T23:12:34.997Z,99153.63
2023-02-27T23:14:39.841Z,99146.88
2023-02-27T23:16:46.113Z,99146.78
2023-02-27T23:18:52.423Z,99148.59
2023-02-27T23:20:57.580Z,99152.03
2023-02-27T23:23:02.166Z,99153.81
2023-02-27T23:25:11.918Z,99153.00
2023-02-27T23:27:25.704Z,99148.78
2023-02-27T23:29:30.785Z,99140.25
2023-02-27T23:31:38.971Z,99142.81
2023-02-27T23:33:43.909Z,99140.16
2023-02-27T23:35:49.175Z,99140.97
2023-02-27T23:37:54.730Z,99138.34
2023-02-27T23:39:59.562Z,99146.00
2023-02-27T23:42:07.220Z,99137.50
2023-02-27T23:44:24.524Z,99142.56
2023-02-27T23:46:30.446Z,99139.06
2023-02-27T23:48:35.872Z,99142.44
2023-02-27T23:50:41.415Z,99146.72
2023-02-27T23:52:46.270Z,99141.56
2023-02-27T23:54:51.081Z,99139.00
2023-02-27T23:56:55.920Z,99133.88
2023-02-27T23:59:05.758Z,99136.50
